Fort Lewis, WA

1:02 PM PDT on September 20, 2014 (GMT -0700)
Gray Army Air Field | Change Station
CLOSE
Current Station
Airport
Location: Fort Lewis,
Elevation: 302 ft
Nearby Weather Stations

Elev 302 ft 47.08 °N, 122.58 °W | Updated 4 minutes ago

Partly Cloudy
Partly Cloudy
67 °F
Feels Like 67 °F
N
10
Wind Variable Wind from North

Today
High -- | Low -- °F
--% Chance of Precip.
Yesterday
High -- | Low -- °F
Precip. -- in
6:54 AM 7:11 PM
Waning Crescent, 10% visible
Pressure 30.04 in
Visibility 10.0 miles
Clouds Clear
Dew Point 56 °F
Humidity 67%
Rainfall 0.00 in
Snow Depth 0 in , 0 in , 0 in
UV 6 out of 12
Pollen 2.00 out of 12
PM2.5 Good
Flu Activity Not available.
METAR KGRF 201958Z AUTO 01009KT 10SM CLR 20/13 A3003 RMK AO2 SLP172 T01960133 PWINO $

More Conditions Fewer Conditions

Pressure 30.04 in
Visibility 10.0 miles
Clouds Clear
Dew Point 56 °F
Humidity 67%
Rainfall 0.00 in
Snow Depth 0 in , 0 in , 0 in
UV 6 out of 12
Pollen 2.00 out of 12
PM2.5 Good
Flu Activity Not available.
METAR KGRF 201958Z AUTO 01009KT 10SM CLR 20/13 A3003 RMK AO2 SLP172 T01960133 PWINO $

More Conditions Fewer Conditions

10-Day Weather Forecast

Almanac

Astronomy

Sep. 20, 2014 Rise Set
Actual Time 6:54 AM PDT 7:11 PM PDT
Civil Twilight 6:24 AM PDT 7:42 PM PDT
Nautical Twilight 5:48 AM PDT 8:18 PM PDT
Astronomical Twilight 5:10 AM PDT 8:55 PM PDT
Moon 3:28 AM PDT 5:26 PM PDT
Length of Visible Light 13h 18m
Length of Day
12h 17m
Tomorrow will be 3m 21s shorter.
Waning Crescent, 10% of the Moon is Illuminated
Today
Waning Crescent
Sep 24
New
Oct 1
First Quarter
Oct 8
Full
Oct 15
Last Quarter

Today's Extremes

State Highs State Lows

Community

WunderPhotos

Upload Photos

1,754,927 photos uploaded!

WunderBlogs® & News

Nearby

Air Quality

  Air Quality AQ Index Pollutant
Yesterday Good
PM2.5
Current Good
PM2.5
Saturday Good
PM2.5
Saturday Good
OZONE
Sunday Good
PM2.5
Sunday Good
OZONE
Monday Good
OZONE
Monday Good
PM2.5
Tuesday Good
OZONE
Tuesday Good
PM2.5

Snow Depth

Station Depth Elevation
Stevens Pass 0 in 4070 ft
Moses Mountain 0 in 5300 ft
Sourdough Gulch 0 in 4000 ft
Trough 0 in 5300 ft
Grouse Camp 0 in 5380 ft

Earthquake Activity

City Distance Mag. Time & Date
Seabeck, Washington 36 miles 4.0 3:06 AM PDT
2014-09-17
Minimum magnitude displayed is 2.5.

Coastal Water Temperatures

Place Temperature
Port Townsend, WA 53.1 °F
Seattle, WA 55.9 °F
Friday Harbor, WA 52.0 °F
Tacoma, WA 55.9 °F

Nearby Weather Stations